sensor_id;sensor_type;location;lat;lon;timestamp;P1;durP1;ratioP1;P2;durP2;ratioP2
17251;SDS011;8742;51.716;8.790;2022-11-28T00:02:11;5.67;;;3.43;;
17251;SDS011;8742;51.716;8.790;2022-11-28T00:04:38;5.33;;;4.20;;
17251;SDS011;8742;51.716;8.790;2022-11-28T00:07:04;7.07;;;4.30;;
17251;SDS011;8742;51.716;8.790;2022-11-28T00:09:31;5.73;;;3.73;;
17251;SDS011;8742;51.716;8.790;2022-11-28T00:11:58;5.90;;;4.10;;
17251;SDS011;8742;51.716;8.790;2022-11-28T00:14:25;7.73;;;3.63;;
17251;SDS011;8742;51.716;8.790;2022-11-28T00:16:52;9.97;;;4.13;;
17251;SDS011;8742;51.716;8.790;2022-11-28T00:19:20;6.50;;;3.63;;
17251;SDS011;8742;51.716;8.790;2022-11-28T00:21:46;7.80;;;4.20;;
17251;SDS011;8742;51.716;8.790;2022-11-28T00:24:13;6.87;;;4.03;;
17251;SDS011;8742;51.716;8.790;2022-11-28T00:26:40;6.97;;;4.53;;
17251;SDS011;8742;51.716;8.790;2022-11-28T00:29:07;6.10;;;3.93;;
17251;SDS011;8742;51.716;8.790;2022-11-28T00:31:36;6.70;;;4.10;;
17251;SDS011;8742;51.716;8.790;2022-11-28T00:34:06;5.03;;;3.67;;
17251;SDS011;8742;51.716;8.790;2022-11-28T00:36:35;7.00;;;3.83;;
17251;SDS011;8742;51.716;8.790;2022-11-28T00:39:02;7.50;;;4.13;;
17251;SDS011;8742;51.716;8.790;2022-11-28T00:41:29;7.10;;;4.17;;
17251;SDS011;8742;51.716;8.790;2022-11-28T00:43:58;6.20;;;4.00;;
17251;SDS011;8742;51.716;8.790;2022-11-28T00:46:25;6.33;;;3.20;;
17251;SDS011;8742;51.716;8.790;2022-11-28T00:48:52;5.97;;;3.20;;
17251;SDS011;8742;51.716;8.790;2022-11-28T00:51:20;6.97;;;3.93;;
17251;SDS011;8742;51.716;8.790;2022-11-28T00:53:50;5.87;;;3.93;;
17251;SDS011;8742;51.716;8.790;2022-11-28T00:56:18;6.60;;;3.87;;
17251;SDS011;8742;51.716;8.790;2022-11-28T00:58:47;7.07;;;3.80;;
17251;SDS011;8742;51.716;8.790;2022-11-28T01:01:15;5.63;;;3.40;;
17251;SDS011;8742;51.716;8.790;2022-11-28T01:03:45;9.73;;;4.33;;
17251;SDS011;8742;51.716;8.790;2022-11-28T01:06:18;8.53;;;3.53;;
17251;SDS011;8742;51.716;8.790;2022-11-28T01:08:46;6.80;;;4.33;;
17251;SDS011;8742;51.716;8.790;2022-11-28T01:11:14;4.53;;;3.40;;
17251;SDS011;8742;51.716;8.790;2022-11-28T01:13:41;8.57;;;4.40;;
17251;SDS011;8742;51.716;8.790;2022-11-28T01:16:08;8.83;;;4.00;;
17251;SDS011;8742;51.716;8.790;2022-11-28T01:18:35;7.30;;;4.37;;
17251;SDS011;8742;51.716;8.790;2022-11-28T01:21:03;8.43;;;3.93;;
17251;SDS011;8742;51.716;8.790;2022-11-28T01:23:30;10.90;;;5.33;;
17251;SDS011;8742;51.716;8.790;2022-11-28T01:25:58;7.67;;;4.63;;
17251;SDS011;8742;51.716;8.790;2022-11-28T01:28:27;8.23;;;4.63;;
17251;SDS011;8742;51.716;8.790;2022-11-28T01:30:54;6.67;;;4.27;;
17251;SDS011;8742;51.716;8.790;2022-11-28T01:33:21;3.87;;;3.30;;
17251;SDS011;8742;51.716;8.790;2022-11-28T01:35:54;8.37;;;4.97;;
17251;SDS011;8742;51.716;8.790;2022-11-28T01:38:22;5.63;;;3.53;;
17251;SDS011;8742;51.716;8.790;2022-11-28T01:40:50;8.10;;;4.37;;
17251;SDS011;8742;51.716;8.790;2022-11-28T01:43:17;13.97;;;5.40;;
17251;SDS011;8742;51.716;8.790;2022-11-28T01:45:46;6.43;;;4.53;;
17251;SDS011;8742;51.716;8.790;2022-11-28T01:48:14;7.47;;;4.63;;
17251;SDS011;8742;51.716;8.790;2022-11-28T01:50:45;9.77;;;4.93;;
17251;SDS011;8742;51.716;8.790;2022-11-28T01:53:14;6.43;;;4.27;;
17251;SDS011;8742;51.716;8.790;2022-11-28T01:55:42;9.60;;;5.23;;
17251;SDS011;8742;51.716;8.790;2022-11-28T01:58:14;12.90;;;5.67;;
17251;SDS011;8742;51.716;8.790;2022-11-28T02:00:41;6.87;;;3.77;;
17251;SDS011;8742;51.716;8.790;2022-11-28T02:03:10;10.77;;;5.03;;
17251;SDS011;8742;51.716;8.790;2022-11-28T02:05:40;6.37;;;4.30;;
17251;SDS011;8742;51.716;8.790;2022-11-28T02:08:07;10.77;;;5.40;;
17251;SDS011;8742;51.716;8.790;2022-11-28T02:10:36;8.23;;;5.07;;
17251;SDS011;8742;51.716;8.790;2022-11-28T02:13:12;8.87;;;3.93;;
17251;SDS011;8742;51.716;8.790;2022-11-28T02:16:03;9.13;;;4.83;;
17251;SDS011;8742;51.716;8.790;2022-11-28T02:18:44;7.80;;;5.00;;
17251;SDS011;8742;51.716;8.790;2022-11-28T02:21:22;8.10;;;4.47;;
17251;SDS011;8742;51.716;8.790;2022-11-28T02:27:16;8.87;;;5.00;;
17251;SDS011;8742;51.716;8.790;2022-11-28T02:29:56;8.17;;;5.37;;
17251;SDS011;8742;51.716;8.790;2022-11-28T02:32:37;8.47;;;4.63;;
17251;SDS011;8742;51.716;8.790;2022-11-28T02:35:26;6.63;;;4.13;;
17251;SDS011;8742;51.716;8.790;2022-11-28T02:38:01;6.50;;;4.23;;
17251;SDS011;8742;51.716;8.790;2022-11-28T02:40:35;10.67;;;6.07;;
17251;SDS011;8742;51.716;8.790;2022-11-28T02:43:06;10.50;;;5.07;;
17251;SDS011;8742;51.716;8.790;2022-11-28T02:45:40;9.47;;;5.33;;
17251;SDS011;8742;51.716;8.790;2022-11-28T02:48:19;8.17;;;4.80;;
17251;SDS011;8742;51.716;8.790;2022-11-28T02:50:54;6.30;;;3.77;;
17251;SDS011;8742;51.716;8.790;2022-11-28T02:53:29;11.00;;;5.10;;
17251;SDS011;8742;51.716;8.790;2022-11-28T02:55:58;12.87;;;5.90;;
17251;SDS011;8742;51.716;8.790;2022-11-28T02:58:25;8.03;;;4.57;;
17251;SDS011;8742;51.716;8.790;2022-11-28T03:00:52;6.27;;;4.10;;
17251;SDS011;8742;51.716;8.790;2022-11-28T03:03:27;10.30;;;5.77;;
17251;SDS011;8742;51.716;8.790;2022-11-28T03:06:13;7.40;;;5.13;;
17251;SDS011;8742;51.716;8.790;2022-11-28T03:08:52;9.77;;;6.00;;
17251;SDS011;8742;51.716;8.790;2022-11-28T03:11:45;10.63;;;5.47;;
17251;SDS011;8742;51.716;8.790;2022-11-28T03:14:23;11.53;;;6.00;;
17251;SDS011;8742;51.716;8.790;2022-11-28T03:17:00;10.03;;;5.37;;
17251;SDS011;8742;51.716;8.790;2022-11-28T03:19:40;12.13;;;5.90;;
17251;SDS011;8742;51.716;8.790;2022-11-28T03:22:16;11.37;;;5.17;;
17251;SDS011;8742;51.716;8.790;2022-11-28T03:24:51;9.87;;;6.17;;
17251;SDS011;8742;51.716;8.790;2022-11-28T03:27:28;9.97;;;6.03;;
17251;SDS011;8742;51.716;8.790;2022-11-28T03:30:01;7.63;;;4.10;;
17251;SDS011;8742;51.716;8.790;2022-11-28T03:32:32;13.83;;;5.83;;
17251;SDS011;8742;51.716;8.790;2022-11-28T03:35:05;8.40;;;4.07;;
17251;SDS011;8742;51.716;8.790;2022-11-28T03:37:37;9.20;;;5.67;;
17251;SDS011;8742;51.716;8.790;2022-11-28T03:40:08;13.53;;;5.90;;
17251;SDS011;8742;51.716;8.790;2022-11-28T03:42:40;12.23;;;5.87;;
17251;SDS011;8742;51.716;8.790;2022-11-28T03:45:10;9.53;;;5.77;;
17251;SDS011;8742;51.716;8.790;2022-11-28T03:47:42;9.53;;;5.60;;
17251;SDS011;8742;51.716;8.790;2022-11-28T03:50:14;8.40;;;5.10;;
17251;SDS011;8742;51.716;8.790;2022-11-28T03:52:46;12.17;;;6.53;;
17251;SDS011;8742;51.716;8.790;2022-11-28T03:55:16;12.67;;;5.90;;
17251;SDS011;8742;51.716;8.790;2022-11-28T03:57:48;13.17;;;6.53;;
17251;SDS011;8742;51.716;8.790;2022-11-28T04:00:20;8.33;;;5.23;;
17251;SDS011;8742;51.716;8.790;2022-11-28T04:02:51;9.63;;;5.37;;
17251;SDS011;8742;51.716;8.790;2022-11-28T04:05:26;11.30;;;5.13;;
17251;SDS011;8742;51.716;8.790;2022-11-28T04:08:04;10.23;;;6.30;;
17251;SDS011;8742;51.716;8.790;2022-11-28T04:10:40;11.07;;;5.13;;
17251;SDS011;8742;51.716;8.790;2022-11-28T04:13:11;13.43;;;6.30;;
17251;SDS011;8742;51.716;8.790;2022-11-28T04:15:46;11.17;;;5.80;;
17251;SDS011;8742;51.716;8.790;2022-11-28T04:18:20;11.20;;;6.07;;
17251;SDS011;8742;51.716;8.790;2022-11-28T04:20:54;9.57;;;5.87;;
17251;SDS011;8742;51.716;8.790;2022-11-28T04:23:26;11.60;;;6.60;;
17251;SDS011;8742;51.716;8.790;2022-11-28T04:25:55;9.53;;;5.67;;
17251;SDS011;8742;51.716;8.790;2022-11-28T04:28:26;11.37;;;6.13;;
17251;SDS011;8742;51.716;8.790;2022-11-28T04:30:57;9.07;;;5.57;;
17251;SDS011;8742;51.716;8.790;2022-11-28T04:33:25;9.70;;;5.00;;
17251;SDS011;8742;51.716;8.790;2022-11-28T04:35:55;9.50;;;6.33;;
17251;SDS011;8742;51.716;8.790;2022-11-28T04:38:23;10.57;;;6.50;;
17251;SDS011;8742;51.716;8.790;2022-11-28T04:40:59;10.60;;;6.50;;
17251;SDS011;8742;51.716;8.790;2022-11-28T04:43:29;11.77;;;6.87;;
17251;SDS011;8742;51.716;8.790;2022-11-28T04:46:00;9.07;;;6.37;;
17251;SDS011;8742;51.716;8.790;2022-11-28T04:48:32;11.30;;;6.57;;
17251;SDS011;8742;51.716;8.790;2022-11-28T04:51:01;12.67;;;6.60;;
17251;SDS011;8742;51.716;8.790;2022-11-28T04:53:42;10.40;;;6.93;;
17251;SDS011;8742;51.716;8.790;2022-11-28T04:56:16;13.47;;;7.07;;
17251;SDS011;8742;51.716;8.790;2022-11-28T04:58:47;10.90;;;6.57;;
17251;SDS011;8742;51.716;8.790;2022-11-28T05:01:16;11.27;;;6.77;;
17251;SDS011;8742;51.716;8.790;2022-11-28T05:03:46;12.53;;;6.50;;
17251;SDS011;8742;51.716;8.790;2022-11-28T05:06:22;12.07;;;6.37;;
17251;SDS011;8742;51.716;8.790;2022-11-28T05:08:50;10.20;;;6.60;;
17251;SDS011;8742;51.716;8.790;2022-11-28T05:11:17;17.93;;;6.60;;
17251;SDS011;8742;51.716;8.790;2022-11-28T05:13:44;12.23;;;6.27;;
17251;SDS011;8742;51.716;8.790;2022-11-28T05:16:11;9.87;;;5.43;;
17251;SDS011;8742;51.716;8.790;2022-11-28T05:18:38;9.60;;;6.07;;
17251;SDS011;8742;51.716;8.790;2022-11-28T05:21:05;9.40;;;5.00;;
17251;SDS011;8742;51.716;8.790;2022-11-28T05:23:34;11.03;;;6.40;;
17251;SDS011;8742;51.716;8.790;2022-11-28T05:26:03;14.13;;;6.60;;
17251;SDS011;8742;51.716;8.790;2022-11-28T05:28:31;12.33;;;5.73;;
17251;SDS011;8742;51.716;8.790;2022-11-28T05:30:58;9.70;;;6.27;;
17251;SDS011;8742;51.716;8.790;2022-11-28T05:33:25;10.30;;;6.30;;
17251;SDS011;8742;51.716;8.790;2022-11-28T05:35:53;11.37;;;6.10;;
17251;SDS011;8742;51.716;8.790;2022-11-28T05:38:20;10.60;;;7.10;;
17251;SDS011;8742;51.716;8.790;2022-11-28T05:40:48;11.20;;;6.63;;
17251;SDS011;8742;51.716;8.790;2022-11-28T05:43:15;12.63;;;6.77;;
17251;SDS011;8742;51.716;8.790;2022-11-28T05:45:42;14.13;;;7.07;;
17251;SDS011;8742;51.716;8.790;2022-11-28T05:48:09;9.97;;;6.30;;
17251;SDS011;8742;51.716;8.790;2022-11-28T05:50:37;10.53;;;6.70;;
17251;SDS011;8742;51.716;8.790;2022-11-28T05:53:04;11.90;;;7.10;;
17251;SDS011;8742;51.716;8.790;2022-11-28T05:55:31;11.73;;;6.37;;
17251;SDS011;8742;51.716;8.790;2022-11-28T05:57:59;8.93;;;5.53;;
17251;SDS011;8742;51.716;8.790;2022-11-28T06:00:26;11.97;;;6.93;;
17251;SDS011;8742;51.716;8.790;2022-11-28T06:02:53;13.53;;;6.37;;
17251;SDS011;8742;51.716;8.790;2022-11-28T06:05:19;9.83;;;6.80;;
17251;SDS011;8742;51.716;8.790;2022-11-28T06:07:46;10.00;;;6.97;;
17251;SDS011;8742;51.716;8.790;2022-11-28T06:10:13;14.57;;;7.83;;
17251;SDS011;8742;51.716;8.790;2022-11-28T06:12:40;12.70;;;7.23;;
17251;SDS011;8742;51.716;8.790;2022-11-28T06:15:09;12.87;;;7.53;;
17251;SDS011;8742;51.716;8.790;2022-11-28T06:17:36;14.73;;;6.30;;
17251;SDS011;8742;51.716;8.790;2022-11-28T06:20:03;13.20;;;7.90;;
17251;SDS011;8742;51.716;8.790;2022-11-28T06:22:31;12.60;;;7.37;;
17251;SDS011;8742;51.716;8.790;2022-11-28T06:24:58;12.43;;;7.03;;
17251;SDS011;8742;51.716;8.790;2022-11-28T06:27:25;13.20;;;6.70;;
17251;SDS011;8742;51.716;8.790;2022-11-28T06:29:52;11.40;;;6.63;;
17251;SDS011;8742;51.716;8.790;2022-11-28T06:32:21;11.43;;;6.97;;
17251;SDS011;8742;51.716;8.790;2022-11-28T06:34:47;11.10;;;6.90;;
17251;SDS011;8742;51.716;8.790;2022-11-28T06:37:14;11.17;;;6.83;;
17251;SDS011;8742;51.716;8.790;2022-11-28T06:39:41;10.80;;;6.60;;
17251;SDS011;8742;51.716;8.790;2022-11-28T06:42:08;11.63;;;7.03;;
17251;SDS011;8742;51.716;8.790;2022-11-28T06:44:35;11.30;;;6.33;;
17251;SDS011;8742;51.716;8.790;2022-11-28T06:47:02;10.40;;;6.93;;
17251;SDS011;8742;51.716;8.790;2022-11-28T06:49:30;9.70;;;6.70;;
17251;SDS011;8742;51.716;8.790;2022-11-28T06:51:57;13.43;;;6.47;;
17251;SDS011;8742;51.716;8.790;2022-11-28T06:54:23;11.97;;;6.93;;
17251;SDS011;8742;51.716;8.790;2022-11-28T06:56:50;10.97;;;6.43;;
17251;SDS011;8742;51.716;8.790;2022-11-28T06:59:17;10.77;;;6.80;;
17251;SDS011;8742;51.716;8.790;2022-11-28T07:01:44;11.57;;;6.60;;
17251;SDS011;8742;51.716;8.790;2022-11-28T07:04:11;14.17;;;6.73;;
17251;SDS011;8742;51.716;8.790;2022-11-28T07:06:39;11.00;;;6.47;;
17251;SDS011;8742;51.716;8.790;2022-11-28T07:09:08;10.83;;;6.40;;
17251;SDS011;8742;51.716;8.790;2022-11-28T07:11:35;10.27;;;6.50;;
17251;SDS011;8742;51.716;8.790;2022-11-28T07:14:02;10.67;;;5.90;;
17251;SDS011;8742;51.716;8.790;2022-11-28T07:16:30;10.20;;;6.63;;
17251;SDS011;8742;51.716;8.790;2022-11-28T07:18:58;13.13;;;6.80;;
17251;SDS011;8742;51.716;8.790;2022-11-28T07:21:25;10.70;;;6.57;;
17251;SDS011;8742;51.716;8.790;2022-11-28T07:23:54;10.97;;;7.03;;
17251;SDS011;8742;51.716;8.790;2022-11-28T07:26:23;11.77;;;6.63;;
17251;SDS011;8742;51.716;8.790;2022-11-28T07:28:50;13.53;;;6.83;;
17251;SDS011;8742;51.716;8.790;2022-11-28T07:31:18;11.43;;;6.67;;
17251;SDS011;8742;51.716;8.790;2022-11-28T07:33:47;12.13;;;6.60;;
17251;SDS011;8742;51.716;8.790;2022-11-28T07:36:16;14.20;;;7.20;;
17251;SDS011;8742;51.716;8.790;2022-11-28T07:38:45;12.27;;;6.70;;
17251;SDS011;8742;51.716;8.790;2022-11-28T07:41:13;10.37;;;6.10;;
17251;SDS011;8742;51.716;8.790;2022-11-28T07:43:40;19.37;;;7.63;;
17251;SDS011;8742;51.716;8.790;2022-11-28T07:46:09;12.63;;;7.37;;
17251;SDS011;8742;51.716;8.790;2022-11-28T07:48:37;13.83;;;7.40;;
17251;SDS011;8742;51.716;8.790;2022-11-28T07:51:05;15.13;;;7.70;;
17251;SDS011;8742;51.716;8.790;2022-11-28T07:53:32;14.40;;;7.67;;
17251;SDS011;8742;51.716;8.790;2022-11-28T07:56:00;14.30;;;7.67;;
17251;SDS011;8742;51.716;8.790;2022-11-28T07:58:29;14.60;;;6.57;;
17251;SDS011;8742;51.716;8.790;2022-11-28T08:00:57;14.03;;;7.83;;
17251;SDS011;8742;51.716;8.790;2022-11-28T08:03:23;20.70;;;8.20;;
17251;SDS011;8742;51.716;8.790;2022-11-28T08:05:51;12.30;;;7.60;;
17251;SDS011;8742;51.716;8.790;2022-11-28T08:08:18;14.23;;;8.50;;
17251;SDS011;8742;51.716;8.790;2022-11-28T08:10:45;12.87;;;8.40;;
17251;SDS011;8742;51.716;8.790;2022-11-28T08:13:12;19.47;;;8.07;;
17251;SDS011;8742;51.716;8.790;2022-11-28T08:15:40;16.90;;;8.53;;
17251;SDS011;8742;51.716;8.790;2022-11-28T08:18:07;16.03;;;8.20;;
17251;SDS011;8742;51.716;8.790;2022-11-28T08:20:34;13.83;;;8.70;;
17251;SDS011;8742;51.716;8.790;2022-11-28T08:23:01;16.17;;;9.03;;
17251;SDS011;8742;51.716;8.790;2022-11-28T08:25:28;14.33;;;8.30;;
17251;SDS011;8742;51.716;8.790;2022-11-28T08:27:55;16.57;;;8.87;;
17251;SDS011;8742;51.716;8.790;2022-11-28T08:30:22;23.13;;;9.93;;
17251;SDS011;8742;51.716;8.790;2022-11-28T08:32:50;13.40;;;8.00;;
17251;SDS011;8742;51.716;8.790;2022-11-28T08:35:17;13.80;;;8.67;;
17251;SDS011;8742;51.716;8.790;2022-11-28T08:37:44;14.90;;;7.93;;
17251;SDS011;8742;51.716;8.790;2022-11-28T08:40:11;16.93;;;8.50;;
17251;SDS011;8742;51.716;8.790;2022-11-28T08:42:38;20.73;;;9.00;;
17251;SDS011;8742;51.716;8.790;2022-11-28T08:45:05;16.27;;;9.10;;
17251;SDS011;8742;51.716;8.790;2022-11-28T08:47:33;16.27;;;8.87;;
17251;SDS011;8742;51.716;8.790;2022-11-28T08:50:01;15.30;;;7.97;;
17251;SDS011;8742;51.716;8.790;2022-11-28T08:52:28;16.20;;;8.73;;
17251;SDS011;8742;51.716;8.790;2022-11-28T08:54:55;16.27;;;8.70;;
17251;SDS011;8742;51.716;8.790;2022-11-28T08:57:22;15.90;;;8.27;;
17251;SDS011;8742;51.716;8.790;2022-11-28T08:59:49;14.77;;;8.33;;
17251;SDS011;8742;51.716;8.790;2022-11-28T09:02:16;16.27;;;8.53;;
17251;SDS011;8742;51.716;8.790;2022-11-28T09:04:43;17.73;;;9.53;;
17251;SDS011;8742;51.716;8.790;2022-11-28T09:07:11;14.43;;;8.80;;
17251;SDS011;8742;51.716;8.790;2022-11-28T09:09:38;24.53;;;8.50;;
17251;SDS011;8742;51.716;8.790;2022-11-28T09:12:05;16.67;;;9.17;;
17251;SDS011;8742;51.716;8.790;2022-11-28T09:14:32;17.77;;;9.00;;
17251;SDS011;8742;51.716;8.790;2022-11-28T09:16:59;13.87;;;8.60;;
17251;SDS011;8742;51.716;8.790;2022-11-28T09:19:26;15.47;;;9.57;;
17251;SDS011;8742;51.716;8.790;2022-11-28T09:21:56;17.60;;;9.63;;
17251;SDS011;8742;51.716;8.790;2022-11-28T09:24:24;19.10;;;8.80;;
17251;SDS011;8742;51.716;8.790;2022-11-28T09:26:51;14.77;;;8.83;;
17251;SDS011;8742;51.716;8.790;2022-11-28T09:29:18;20.27;;;9.27;;
17251;SDS011;8742;51.716;8.790;2022-11-28T09:31:44;15.30;;;8.90;;
17251;SDS011;8742;51.716;8.790;2022-11-28T09:34:11;16.17;;;9.10;;
17251;SDS011;8742;51.716;8.790;2022-11-28T09:36:38;16.03;;;9.00;;
17251;SDS011;8742;51.716;8.790;2022-11-28T09:39:06;19.03;;;9.47;;
17251;SDS011;8742;51.716;8.790;2022-11-28T09:41:38;15.00;;;8.80;;
17251;SDS011;8742;51.716;8.790;2022-11-28T09:44:17;15.20;;;8.90;;
17251;SDS011;8742;51.716;8.790;2022-11-28T09:46:48;16.60;;;8.83;;
17251;SDS011;8742;51.716;8.790;2022-11-28T09:49:22;18.20;;;9.93;;
17251;SDS011;8742;51.716;8.790;2022-11-28T09:51:56;19.33;;;9.33;;
17251;SDS011;8742;51.716;8.790;2022-11-28T09:54:31;15.17;;;8.60;;
17251;SDS011;8742;51.716;8.790;2022-11-28T09:57:09;15.47;;;9.30;;
17251;SDS011;8742;51.716;8.790;2022-11-28T09:59:40;15.57;;;9.33;;
17251;SDS011;8742;51.716;8.790;2022-11-28T10:02:14;17.97;;;9.13;;
17251;SDS011;8742;51.716;8.790;2022-11-28T10:04:50;15.60;;;7.63;;
17251;SDS011;8742;51.716;8.790;2022-11-28T10:07:26;19.30;;;9.97;;
17251;SDS011;8742;51.716;8.790;2022-11-28T10:09:59;18.17;;;9.13;;
17251;SDS011;8742;51.716;8.790;2022-11-28T10:12:40;18.90;;;10.30;;
17251;SDS011;8742;51.716;8.790;2022-11-28T10:15:18;19.73;;;9.70;;
17251;SDS011;8742;51.716;8.790;2022-11-28T10:18:00;17.07;;;9.50;;
17251;SDS011;8742;51.716;8.790;2022-11-28T10:20:37;15.30;;;9.37;;
17251;SDS011;8742;51.716;8.790;2022-11-28T10:23:07;18.10;;;9.30;;
17251;SDS011;8742;51.716;8.790;2022-11-28T10:25:41;15.00;;;8.13;;
17251;SDS011;8742;51.716;8.790;2022-11-28T10:28:12;16.27;;;7.87;;
17251;SDS011;8742;51.716;8.790;2022-11-28T10:30:41;13.33;;;8.13;;
17251;SDS011;8742;51.716;8.790;2022-11-28T10:33:15;15.10;;;8.57;;
17251;SDS011;8742;51.716;8.790;2022-11-28T10:35:46;16.83;;;9.07;;
17251;SDS011;8742;51.716;8.790;2022-11-28T10:38:18;15.80;;;9.63;;
17251;SDS011;8742;51.716;8.790;2022-11-28T10:40:54;17.83;;;9.57;;
17251;SDS011;8742;51.716;8.790;2022-11-28T10:43:30;17.37;;;9.93;;
17251;SDS011;8742;51.716;8.790;2022-11-28T10:46:08;12.87;;;7.83;;
17251;SDS011;8742;51.716;8.790;2022-11-28T10:48:56;16.87;;;9.97;;
17251;SDS011;8742;51.716;8.790;2022-11-28T10:51:37;14.97;;;10.10;;
17251;SDS011;8742;51.716;8.790;2022-11-28T10:54:15;17.43;;;8.63;;
17251;SDS011;8742;51.716;8.790;2022-11-28T10:56:50;18.97;;;10.20;;
17251;SDS011;8742;51.716;8.790;2022-11-28T10:59:27;17.70;;;8.83;;
17251;SDS011;8742;51.716;8.790;2022-11-28T11:02:18;14.17;;;8.40;;
17251;SDS011;8742;51.716;8.790;2022-11-28T11:04:46;16.03;;;9.43;;
17251;SDS011;8742;51.716;8.790;2022-11-28T11:07:14;16.37;;;9.10;;
17251;SDS011;8742;51.716;8.790;2022-11-28T11:09:44;17.93;;;9.53;;
17251;SDS011;8742;51.716;8.790;2022-11-28T11:12:18;15.17;;;9.50;;
17251;SDS011;8742;51.716;8.790;2022-11-28T11:14:48;15.87;;;8.47;;
17251;SDS011;8742;51.716;8.790;2022-11-28T11:17:23;19.20;;;9.07;;
17251;SDS011;8742;51.716;8.790;2022-11-28T11:19:52;18.30;;;10.20;;
17251;SDS011;8742;51.716;8.790;2022-11-28T11:22:20;18.37;;;9.83;;
17251;SDS011;8742;51.716;8.790;2022-11-28T11:25:04;18.03;;;10.03;;
17251;SDS011;8742;51.716;8.790;2022-11-28T11:27:32;18.60;;;9.43;;
17251;SDS011;8742;51.716;8.790;2022-11-28T11:30:15;19.40;;;8.40;;
17251;SDS011;8742;51.716;8.790;2022-11-28T11:32:48;17.10;;;9.13;;
17251;SDS011;8742;51.716;8.790;2022-11-28T11:35:16;19.07;;;10.03;;
17251;SDS011;8742;51.716;8.790;2022-11-28T11:37:47;19.23;;;10.20;;
17251;SDS011;8742;51.716;8.790;2022-11-28T11:40:19;19.17;;;9.30;;
17251;SDS011;8742;51.716;8.790;2022-11-28T11:42:50;15.30;;;9.07;;
17251;SDS011;8742;51.716;8.790;2022-11-28T11:45:24;17.20;;;8.53;;
17251;SDS011;8742;51.716;8.790;2022-11-28T11:47:53;18.73;;;9.57;;
17251;SDS011;8742;51.716;8.790;2022-11-28T11:50:21;16.97;;;9.57;;
17251;SDS011;8742;51.716;8.790;2022-11-28T11:52:59;16.60;;;9.27;;
17251;SDS011;8742;51.716;8.790;2022-11-28T11:55:27;15.33;;;9.30;;
17251;SDS011;8742;51.716;8.790;2022-11-28T11:57:56;13.80;;;8.60;;
17251;SDS011;8742;51.716;8.790;2022-11-28T12:00:27;17.93;;;9.57;;
17251;SDS011;8742;51.716;8.790;2022-11-28T12:03:02;18.50;;;9.30;;
17251;SDS011;8742;51.716;8.790;2022-11-28T12:05:38;18.87;;;9.33;;
17251;SDS011;8742;51.716;8.790;2022-11-28T12:08:14;16.00;;;9.23;;
17251;SDS011;8742;51.716;8.790;2022-11-28T12:10:47;15.47;;;9.23;;
17251;SDS011;8742;51.716;8.790;2022-11-28T12:13:18;17.20;;;9.57;;
17251;SDS011;8742;51.716;8.790;2022-11-28T12:15:50;18.87;;;9.77;;
17251;SDS011;8742;51.716;8.790;2022-11-28T12:18:25;16.73;;;9.37;;
17251;SDS011;8742;51.716;8.790;2022-11-28T12:21:02;18.03;;;9.53;;
17251;SDS011;8742;51.716;8.790;2022-11-28T12:23:45;15.57;;;8.80;;
17251;SDS011;8742;51.716;8.790;2022-11-28T12:26:27;15.93;;;8.70;;
17251;SDS011;8742;51.716;8.790;2022-11-28T12:29:07;17.87;;;9.77;;
17251;SDS011;8742;51.716;8.790;2022-11-28T12:31:45;16.47;;;9.13;;
17251;SDS011;8742;51.716;8.790;2022-11-28T12:34:20;18.17;;;9.17;;
17251;SDS011;8742;51.716;8.790;2022-11-28T12:36:57;16.33;;;8.93;;
17251;SDS011;8742;51.716;8.790;2022-11-28T12:39:31;17.43;;;9.37;;
17251;SDS011;8742;51.716;8.790;2022-11-28T12:42:17;14.80;;;8.20;;
17251;SDS011;8742;51.716;8.790;2022-11-28T12:45:05;18.33;;;9.90;;
17251;SDS011;8742;51.716;8.790;2022-11-28T12:47:56;15.53;;;9.20;;
17251;SDS011;8742;51.716;8.790;2022-11-28T12:50:34;15.90;;;9.63;;
17251;SDS011;8742;51.716;8.790;2022-11-28T12:53:08;15.37;;;9.63;;
17251;SDS011;8742;51.716;8.790;2022-11-28T12:55:56;17.17;;;9.77;;
17251;SDS011;8742;51.716;8.790;2022-11-28T12:58:32;16.70;;;9.87;;
17251;SDS011;8742;51.716;8.790;2022-11-28T13:01:05;18.13;;;9.47;;
17251;SDS011;8742;51.716;8.790;2022-11-28T13:03:50;16.87;;;9.83;;
17251;SDS011;8742;51.716;8.790;2022-11-28T13:06:28;15.53;;;8.77;;
17251;SDS011;8742;51.716;8.790;2022-11-28T13:11:52;16.33;;;9.03;;
17251;SDS011;8742;51.716;8.790;2022-11-28T13:14:30;18.07;;;9.20;;
17251;SDS011;8742;51.716;8.790;2022-11-28T13:17:10;18.50;;;9.43;;
17251;SDS011;8742;51.716;8.790;2022-11-28T13:19:48;17.23;;;9.23;;
17251;SDS011;8742;51.716;8.790;2022-11-28T13:22:19;19.53;;;10.23;;
17251;SDS011;8742;51.716;8.790;2022-11-28T13:24:50;19.00;;;9.70;;
17251;SDS011;8742;51.716;8.790;2022-11-28T13:27:26;14.87;;;9.17;;
17251;SDS011;8742;51.716;8.790;2022-11-28T13:30:02;18.37;;;10.07;;
17251;SDS011;8742;51.716;8.790;2022-11-28T13:32:40;18.63;;;9.57;;
17251;SDS011;8742;51.716;8.790;2022-11-28T13:35:13;16.13;;;9.50;;
17251;SDS011;8742;51.716;8.790;2022-11-28T13:37:43;14.80;;;9.30;;
17251;SDS011;8742;51.716;8.790;2022-11-28T13:40:14;15.70;;;9.00;;
17251;SDS011;8742;51.716;8.790;2022-11-28T13:42:49;19.50;;;9.90;;
17251;SDS011;8742;51.716;8.790;2022-11-28T13:45:24;17.07;;;9.93;;
17251;SDS011;8742;51.716;8.790;2022-11-28T13:47:54;20.40;;;9.30;;
17251;SDS011;8742;51.716;8.790;2022-11-28T13:50:39;17.47;;;10.10;;
17251;SDS011;8742;51.716;8.790;2022-11-28T13:53:23;19.83;;;9.93;;
17251;SDS011;8742;51.716;8.790;2022-11-28T13:55:51;21.77;;;9.83;;
17251;SDS011;8742;51.716;8.790;2022-11-28T13:58:40;15.87;;;8.97;;
17251;SDS011;8742;51.716;8.790;2022-11-28T14:01:12;15.60;;;9.37;;
17251;SDS011;8742;51.716;8.790;2022-11-28T14:03:43;21.40;;;9.97;;
17251;SDS011;8742;51.716;8.790;2022-11-28T14:06:15;18.23;;;9.67;;
17251;SDS011;8742;51.716;8.790;2022-11-28T14:08:45;16.20;;;9.37;;
17251;SDS011;8742;51.716;8.790;2022-11-28T14:11:19;18.63;;;10.10;;
17251;SDS011;8742;51.716;8.790;2022-11-28T14:14:19;17.30;;;10.00;;
17251;SDS011;8742;51.716;8.790;2022-11-28T14:16:58;20.37;;;10.07;;
17251;SDS011;8742;51.716;8.790;2022-11-28T14:19:39;16.37;;;9.47;;
17251;SDS011;8742;51.716;8.790;2022-11-28T14:22:18;15.27;;;8.77;;
17251;SDS011;8742;51.716;8.790;2022-11-28T14:25:03;17.80;;;10.00;;
17251;SDS011;8742;51.716;8.790;2022-11-28T14:27:37;17.83;;;9.80;;
17251;SDS011;8742;51.716;8.790;2022-11-28T14:30:06;16.63;;;9.13;;
17251;SDS011;8742;51.716;8.790;2022-11-28T14:32:47;21.43;;;9.30;;
17251;SDS011;8742;51.716;8.790;2022-11-28T14:38:42;21.67;;;11.00;;
17251;SDS011;8742;51.716;8.790;2022-11-28T14:41:10;20.37;;;9.20;;
17251;SDS011;8742;51.716;8.790;2022-11-28T14:43:39;16.13;;;9.63;;
17251;SDS011;8742;51.716;8.790;2022-11-28T14:46:24;16.70;;;10.10;;
17251;SDS011;8742;51.716;8.790;2022-11-28T14:49:08;19.77;;;10.87;;
17251;SDS011;8742;51.716;8.790;2022-11-28T14:54:56;18.50;;;10.33;;
17251;SDS011;8742;51.716;8.790;2022-11-28T14:57:25;19.63;;;11.03;;
17251;SDS011;8742;51.716;8.790;2022-11-28T14:59:55;16.47;;;10.20;;
17251;SDS011;8742;51.716;8.790;2022-11-28T15:05:31;20.43;;;10.37;;
17251;SDS011;8742;51.716;8.790;2022-11-28T15:08:21;20.27;;;10.37;;
17251;SDS011;8742;51.716;8.790;2022-11-28T15:11:01;17.20;;;9.53;;
17251;SDS011;8742;51.716;8.790;2022-11-28T15:16:32;17.90;;;10.20;;
17251;SDS011;8742;51.716;8.790;2022-11-28T15:19:02;21.37;;;10.63;;
17251;SDS011;8742;51.716;8.790;2022-11-28T15:21:40;25.07;;;11.40;;
17251;SDS011;8742;51.716;8.790;2022-11-28T15:29:51;20.17;;;11.00;;
17251;SDS011;8742;51.716;8.790;2022-11-28T15:32:19;25.93;;;12.10;;
17251;SDS011;8742;51.716;8.790;2022-11-28T15:34:50;26.80;;;12.37;;
17251;SDS011;8742;51.716;8.790;2022-11-28T15:37:20;19.33;;;10.83;;
17251;SDS011;8742;51.716;8.790;2022-11-28T15:39:51;20.33;;;10.43;;
17251;SDS011;8742;51.716;8.790;2022-11-28T15:42:20;19.93;;;10.67;;